Latest Coastal Weather Observations for Bedout Island

IDW60701

Issued at 7:12 pm WST Monday 2 March 2015 (issued every 10 minutes, with the page automatically refreshed every 10 minutes)

About coastal observations | Map of coastal stations | Coastal observations for WA | Marine services | Other Formats
Station Details ID: 004100 Name: BEDOUT ISLAND Lat: -19.59 Lon: 119.10 Height: 8.6 m
Data from the previous 72 hours. | See also: Recent months for locations in Western Australia
Date/Time
WST
Temp

°C
Wind Pressure Rain
since 9am
mm
Weather Cloud Vis
km
Sea
Height
m
Swell
Dir
 
Speed
knots
Gust
knots
hPa Trend Height
m
Period
s
Dir
02/07:00pm 28.5 WNW 11 12 1005.5 - - - - - - - - -
02/06:30pm 28.7 WNW 10 11 1005.3 - - - - - - - - -
02/06:00pm 29.5 WNW 10 11 1005.0 - - - - - - - - -
02/05:30pm 30.3 WNW 10 12 1004.8 - - - - - - - - -
02/05:00pm 30.7 WNW 11 13 1004.7 - - - - - - - - -
02/04:30pm 31.2 W 12 14 1004.5 - - - - - - - - -
02/04:00pm 32.0 W 12 13 1004.4 - - - - - - - - -
02/03:30pm 32.1 W 11 13 1004.4 - - - - - - - - -
02/03:00pm 32.3 W 12 14 1004.5 - - - - - - - - -
02/02:30pm 32.3 W 11 13 1005.0 - - - - - - - - -
02/02:00pm 32.8 W 9 11 1005.5 - - - - - - - - -
02/01:30pm 32.5 WSW 8 9 1006.1 - - - - - - - - -
02/01:00pm 32.5 WSW 11 12 1006.1 - - - - - - - - -
02/12:30pm 32.2 WSW 11 13 1006.5 - - - - - - - - -
02/12:00pm 32.9 WSW 11 13 1007.0 - - - - - - - - -
02/11:30am 32.4 SW 13 15 1007.6 - - - - - - - - -
02/11:00am 32.4 SW 11 13 1007.9 - - - - - - - - -
02/10:30am 32.0 SW 12 14 1008.0 - - - - - - - - -
02/10:00am 31.4 SW 13 15 1008.0 - - - - - - - - -
02/09:30am 31.1 WSW 14 17 1007.9 - - - - - - - - -
02/09:00am 30.9 WSW 14 16 1007.9 - - - - - - - - -
02/08:30am 30.3 WSW 14 16 1007.9 - - - - - - - - -
02/08:00am 30.3 W 13 17 1007.5 - - - - - - - - -
02/07:30am 29.1 W 14 16 1007.1 - - - - - - - - -
02/07:00am 28.6 W 14 16 1006.8 - - - - - - - - -
02/06:30am 27.9 W 14 16 1006.8 - - - - - - - - -
02/06:00am 27.8 W 14 16 1006.7 - - - - - - - - -
02/05:30am 27.8 W 14 16 1006.5 - - - - - - - - -
02/05:00am 27.8 W 15 16 1006.4 - - - - - - - - -
02/04:30am 27.8 W 15 17 1006.3 - - - - - - - - -
02/04:00am 27.8 W 16 18 1006.2 - - - - - - - - -
02/03:30am 27.9 W 14 16 1006.4 - - - - - - - - -
02/03:00am 27.9 W 14 15 1006.3 - - - - - - - - -
02/02:30am 28.1 W 15 17 1006.4 - - - - - - - - -
02/02:00am 28.0 W 15 16 1006.7 - - - - - - - - -
02/01:30am 28.1 W 15 17 1006.6 - - - - - - - - -
02/01:00am 28.2 W 14 16 1006.8 - - - - - - - - -
02/12:30am 28.1 W 15 17 1007.0 - - - - - - - - -
02/12:00am 28.2 W 14 16 1007.0 - - - - - - - - -
 
Date/Time
WST
Temp

°C
Wind Pressure Rain
since 9am
mm
Weather Cloud Vis
km
Sea
Height
m
Swell
Dir
 
Speed
knots
Gust
knots
hPa Trend Height
m
Period
s
Dir
01/11:30pm 28.4 WNW 15 17 1007.4 - - - - - - - - -
01/11:00pm 28.4 W 15 17 1007.4 - - - - - - - - -
01/10:30pm 28.5 WNW 17 19 1007.3 - - - - - - - - -
01/10:00pm 28.5 W 17 19 1007.2 - - - - - - - - -
01/09:30pm 28.5 W 15 16 1007.2 - - - - - - - - -
01/09:00pm 28.5 W 14 16 1007.1 - - - - - - - - -
01/08:30pm 28.3 W 14 16 1006.9 - - - - - - - - -
01/08:00pm 28.4 W 14 17 1006.7 - - - - - - - - -
01/07:30pm 28.4 W 14 16 1006.4 - - - - - - - - -
01/07:00pm 28.2 WNW 13 15 1006.2 - - - - - - - - -
01/06:30pm 28.6 WNW 12 14 1006.1 - - - - - - - - -
01/06:00pm 28.8 WNW 10 11 1006.0 - - - - - - - - -
01/05:30pm 29.0 WNW 9 11 1006.0 - - - - - - - - -
01/05:00pm 29.5 WNW 9 11 1006.0 - - - - - - - - -
01/04:30pm 29.7 WNW 10 13 1005.5 - - - - - - - - -
01/04:00pm 29.8 NW 8 11 1005.5 - - - - - - - - -
01/03:30pm 30.7 NW 8 9 1005.6 - - - - - - - - -
01/03:00pm 31.0 NNW 6 8 1005.6 - - - - - - - - -
01/02:30pm 30.8 N 6 7 1005.9 - - - - - - - - -
01/02:00pm 29.9 NNW 6 8 1006.1 - - - - - - - - -
01/01:30pm 30.4 NW 6 8 1006.5 - - - - - - - - -
01/01:00pm 29.6 WNW 5 7 1007.1 - - - - - - - - -
01/12:00pm 29.4 WNW 7 8 1008.1 - - - - - - - - -
01/11:30am 29.4 NW 5 7 1008.5 - - - - - - - - -
01/11:00am 28.9 NW 7 9 1008.9 - - - - - - - - -
01/10:30am 28.1 NW 8 10 1008.9 - - - - - - - - -
01/10:00am 29.5 E 7 9 1009.2 - - - - - - - - -
01/09:30am 29.2 ESE 9 11 1009.4 - - - - - - - - -
01/09:00am 29.1 SSE 7 9 1009.4 - - - - - - - - -
01/08:30am 28.6 S 8 10 1008.8 - - - - - - - - -
01/08:00am 27.2 S 10 13 1008.7 - - - - - - - - -
01/07:30am 26.5 S 10 13 1008.5 - - - - - - - - -
01/07:00am 26.5 SSW 11 13 1008.3 - - - - - - - - -
01/06:30am 26.2 SW 15 17 1007.8 - - - - - - - - -
01/06:00am 25.7 WSW 14 17 1007.6 - - - - - - - - -
01/05:30am 25.2 WSW 10 12 1007.3 - - - - - - - - -
01/05:00am 25.2 WSW 12 18 1007.2 - - - - - - - - -
01/04:52am 25.4 W 18 28 1007.2 - - - - - - - - -
01/04:36am 27.2 W 19 27 1006.7 - - - - - - - - -
01/04:30am 28.5 SW 12 13 1006.6 - - - - - - - - -
01/04:00am 28.4 WSW 11 13 1006.3 - - - - - - - - -
01/03:30am 28.5 W 13 15 1006.2 - - - - - - - - -
01/03:00am 28.4 W 15 17 1005.7 - - - - - - - - -
01/02:30am 28.5 W 17 19 1005.7 - - - - - - - - -
01/02:00am 28.6 W 19 22 1005.9 - - - - - - - - -
01/01:30am 28.6 W 18 22 1006.1 - - - - - - - - -
01/01:00am 28.8 W 15 17 1006.7 - - - - - - - - -
01/12:30am 28.8 W 17 19 1006.6 - - - - - - - - -
01/12:00am 28.7 WNW 15 18 1007.0 - - - - - - - - -
 
Date/Time
WST
Temp

°C
Wind Pressure Rain
since 9am
mm
Weather Cloud Vis
km
Sea
Height
m
Swell
Dir
 
Speed
knots
Gust
knots
hPa Trend Height
m
Period
s
Dir
28/11:30pm 28.7 WNW 13 16 1007.6 - - - - - - - - -
28/11:00pm 28.7 WNW 14 16 1007.5 - - - - - - - - -
28/10:30pm 28.7 WNW 15 17 1007.4 - - - - - - - - -
28/10:00pm 28.8 WNW 14 16 1007.4 - - - - - - - - -
28/09:30pm 28.8 WNW 12 13 1007.9 - - - - - - - - -
28/09:00pm 28.9 WNW 12 14 1007.6 - - - - - - - - -
28/08:30pm 28.9 WNW 12 13 1007.6 - - - - - - - - -
28/08:00pm 28.8 NW 12 14 1007.1 - - - - - - - - -
28/07:30pm 29.0 WNW 13 15 1006.7 - - - - - - - - -
28/07:00pm 29.0 WNW 14 16 1006.2 - - - - - - - - -
28/06:30pm 29.2 WNW 14 16 1005.8 - - - - - - - - -
28/06:00pm 29.9 WNW 12 14 1005.2 - - - - - - - - -
28/05:30pm 30.3 WNW 13 14 1005.3 - - - - - - - - -
28/05:00pm 31.3 WNW 15 17 1005.1 - - - - - - - - -
28/04:30pm 31.4 WNW 14 17 1005.6 - - - - - - - - -
28/04:00pm 32.0 W 15 17 1005.2 - - - - - - - - -
28/03:30pm 32.3 W 14 17 1005.3 - - - - - - - - -
28/03:00pm 32.4 W 13 15 1005.6 - - - - - - - - -
28/02:30pm 32.5 WNW 12 14 1006.2 - - - - - - - - -
28/02:00pm 32.6 W 10 13 1006.1 - - - - - - - - -
28/01:30pm 32.6 WNW 9 11 1006.4 - - - - - - - - -
28/01:00pm 32.7 W 7 9 1006.7 - - - - - - - - -
28/12:30pm 32.9 W 7 10 1007.2 - - - - - - - - -
28/12:00pm 32.2 WNW 8 9 1007.5 - - - - - - - - -
28/11:30am 31.9 W 7 9 1007.9 - - - - - - - - -
28/11:00am 32.4 W 7 8 1008.2 - - - - - - - - -
28/10:30am 31.4 W 6 8 1008.4 - - - - - - - - -
28/10:00am 31.4 W 6 7 1008.5 - - - - - - - - -
28/09:30am 31.3 W 6 7 1008.4 - - - - - - - - -
28/09:00am 31.1 W 7 8 1008.3 - - - - - - - - -
28/08:30am 30.4 W 8 9 1008.3 - - - - - - - - -
28/08:00am 30.5 W 8 9 1008.0 - - - - - - - - -
28/07:30am 29.6 W 8 10 1007.7 - - - - - - - - -
28/07:00am 28.8 WSW 8 9 1007.6 - - - - - - - - -
28/06:30am 28.1 W 8 10 1007.3 - - - - - - - - -
28/06:00am 27.8 W 8 9 1007.0 - - - - - - - - -
28/05:30am 27.7 W 8 9 1007.1 - - - - - - - - -
28/05:00am 27.8 W 7 9 1006.8 - - - - - - - - -
28/04:30am 27.8 WSW 7 9 1006.8 - - - - - - - - -
28/04:00am 27.9 WSW 8 10 1006.3 - - - - - - - - -
28/03:30am 28.0 W 9 10 1006.3 - - - - - - - - -
28/03:00am 28.0 WSW 9 11 1006.3 - - - - - - - - -
28/02:30am 28.1 W 9 11 1006.4 - - - - - - - - -
28/02:00am 28.1 W 10 13 1006.4 - - - - - - - - -
28/01:30am 28.2 W 10 11 1006.5 - - - - - - - - -
28/01:00am 28.3 W 11 12 1006.7 - - - - - - - - -
28/12:30am 28.3 W 10 11 1007.1 - - - - - - - - -
28/12:00am 28.4 W 11 13 1007.3 - - - - - - - - -
 
Date/Time
WST
Temp

°C
Wind Pressure Rain
since 9am
mm
Weather Cloud Vis
km
Sea
Height
m
Swell
Dir
 
Speed
knots
Gust
knots
hPa Trend Height
m
Period
s
Dir
27/11:30pm 28.5 W 12 13 1007.6 - - - - - - - - -
27/11:00pm 28.6 W 12 13 1007.6 - - - - - - - - -
27/10:30pm 28.7 W 14 16 1007.6 - - - - - - - - -
27/10:00pm 28.7 W 12 14 1007.5 - - - - - - - - -
27/09:30pm 28.7 W 10 12 1007.3 - - - - - - - - -
27/09:00pm 28.9 WNW 10 12 1006.8 - - - - - - - - -
27/08:30pm 28.7 NW 8 9 1006.9 - - - - - - - - -
27/08:00pm 28.8 NW 7 9 1006.6 - - - - - - - - -
27/07:30pm 28.8 NW 6 8 1006.1 - - - - - - - - -

Other Formats:

Comma delimited format used in spreadsheet applications
http://www.bom.gov.au/fwo/IDW60701/IDW60701.94310.axf

JavaScript Object Notation format (JSON) in row-major order
http://www.bom.gov.au/fwo/IDW60701/IDW60701.94310.json